Terminal Aerodrome Forecast
Issued by NWS

Current Version | Previous Version | Graphics & Text | Print | Product List | Glossary On
Versions: 1 2 3 4 5 6 7 8 9 10 11 12 13 14 15 16 17 18 19 20 21 22 23 24 25 26 27 28 29 30 31 32 33 34 35 36 37 38 39 40 41 42 43 44 45 46 47 48 49
000
FTUS41 KRNK 271733
TAFLWB
TAF
KLWB 271733Z 2718/2818 29006KT P6SM SCT021 OVC035
     FM280200 30005KT P6SM BKN030
     FM280600 30005KT P6SM -SHSN OVC025
     FM281200 29005KT P6SM SCT050=

USA.gov is the U.S. government's official web portal to all federal, state and local government web resources and services.